Time,TemperatureF,DewpointF,PressureIn,WindDirection,WindDirectionDegrees,WindSpeedMPH,WindSpeedGustMPH,Humidity,HourlyPrecipIn,Conditions,Clouds,dailyrainin,SoftwareType,DateUTC
2013-03-29 09:22:00,57.0,45.0,30.09,West,275,0.0,3.0,65,0.00,,,0.00,,2013-03-29 14:22:00,
2013-03-29 09:33:00,57.0,45.0,30.09,West,275,0.0,3.0,65,0.00,,,0.00,,2013-03-29 14:33:00,
2013-03-29 09:42:00,57.0,45.0,30.09,West,275,0.0,3.0,65,0.00,,,0.00,,2013-03-29 14:42:00,
2013-03-29 09:53:00,61.0,47.0,30.09,West,265,0.0,5.0,59,0.00,,,0.00,,2013-03-29 14:53:00,
2013-03-29 10:02:00,61.0,47.0,30.09,West,265,0.0,5.0,59,0.00,,,0.00,,2013-03-29 15:02:00,
2013-03-29 10:12:00,61.0,47.0,30.09,West,265,0.0,5.0,59,0.00,,,0.00,,2013-03-29 15:12:00,
2013-03-29 10:22:00,62.0,46.0,30.09,WNW,287,0.0,5.0,55,0.00,,,0.00,,2013-03-29 15:22:00,
2013-03-29 10:33:00,62.0,46.0,30.09,WNW,287,0.0,5.0,55,0.00,,,0.00,,2013-03-29 15:33:00,
2013-03-29 10:43:00,62.0,46.0,30.09,WNW,287,0.0,5.0,55,0.00,,,0.00,,2013-03-29 15:43:00,
2013-03-29 10:53:00,65.0,45.0,30.08,SW,229,0.0,3.0,49,0.00,,,0.00,,2013-03-29 15:53:00,
2013-03-29 11:03:00,65.0,45.0,30.08,SW,229,0.0,3.0,49,0.00,,,0.00,,2013-03-29 16:03:00,
2013-03-29 11:13:00,65.0,45.0,30.08,SW,229,0.0,3.0,49,0.00,,,0.00,,2013-03-29 16:13:00,
2013-03-29 11:23:00,67.0,45.0,30.08,South,181,1.0,7.0,45,0.00,,,0.00,,2013-03-29 16:23:00,
2013-03-29 11:32:00,67.0,45.0,30.08,South,181,1.0,7.0,45,0.00,,,0.00,,2013-03-29 16:32:00,
2013-03-29 11:43:00,67.0,45.0,30.08,South,181,1.0,7.0,45,0.00,,,0.00,,2013-03-29 16:43:00,
2013-03-29 11:53:00,67.0,44.0,30.09,South,176,1.0,4.0,43,0.00,,,0.00,,2013-03-29 16:53:00,
2013-03-29 12:03:00,67.0,44.0,30.09,South,176,1.0,4.0,43,0.00,,,0.00,,2013-03-29 17:03:00,
2013-03-29 12:12:00,67.0,44.0,30.09,South,176,1.0,4.0,43,0.00,,,0.00,,2013-03-29 17:12:00,
2013-03-29 12:22:00,69.0,44.0,30.08,South,189,4.0,8.0,40,0.00,,,0.00,,2013-03-29 17:22:00,
2013-03-29 12:33:00,69.0,44.0,30.08,South,189,4.0,8.0,40,0.00,,,0.00,,2013-03-29 17:33:00,
2013-03-29 12:43:00,69.0,44.0,30.08,South,189,4.0,8.0,40,0.00,,,0.00,,2013-03-29 17:43:00,
2013-03-29 12:53:00,70.0,43.0,30.09,South,171,0.0,0.0,38,0.00,,,0.00,,2013-03-29 17:53:00,
2013-03-29 13:02:00,70.0,43.0,30.09,South,171,0.0,0.0,38,0.00,,,0.00,,2013-03-29 18:02:00,
2013-03-29 13:12:00,70.0,43.0,30.09,South,171,0.0,0.0,38,0.00,,,0.00,,2013-03-29 18:12:00,
2013-03-29 13:22:00,72.0,35.0,30.08,ESE,123,0.0,3.0,26,0.00,,,0.00,,2013-03-29 18:22:00,
2013-03-29 13:32:00,72.0,35.0,30.08,ESE,123,0.0,3.0,26,0.00,,,0.00,,2013-03-29 18:32:00,
2013-03-29 13:43:00,72.0,35.0,30.08,ESE,123,0.0,3.0,26,0.00,,,0.00,,2013-03-29 18:43:00,
2013-03-29 13:52:00,73.0,30.0,30.07,North,359,0.0,5.0,20,0.00,,,0.00,,2013-03-29 18:52:00,
2013-03-29 14:02:00,73.0,30.0,30.07,North,359,0.0,5.0,20,0.00,,,0.00,,2013-03-29 19:02:00,
2013-03-29 14:12:00,74.0,29.0,30.05,North,360,6.0,8.0,19,0.00,,,0.00,,2013-03-29 19:12:00,
2013-03-29 14:22:00,74.0,29.0,30.05,North,360,6.0,8.0,19,0.00,,,0.00,,2013-03-29 19:22:00,
2013-03-29 14:32:00,74.0,29.0,30.05,North,360,6.0,8.0,19,0.00,,,0.00,,2013-03-29 19:32:00,
2013-03-29 14:43:00,74.0,29.0,30.05,North,360,6.0,8.0,19,0.00,,,0.00,,2013-03-29 19:43:00,
2013-03-29 14:53:00,74.0,30.0,30.05,North,360,0.0,0.0,20,0.00,,,0.00,,2013-03-29 19:53:00,
2013-03-29 15:00:00,73.0,31.0,30.04,East,90,2.0,8.0,21,0.00,,,0.00,,2013-03-29 20:00:00,
2013-03-29 15:02:00,74.0,30.0,30.05,North,360,0.0,0.0,20,0.00,,,0.00,,2013-03-29 20:02:00,
2013-03-29 15:12:00,74.0,30.0,30.05,North,360,0.0,0.0,20,0.00,,,0.00,,2013-03-29 20:12:00,
2013-03-29 15:22:00,73.0,31.0,30.04,East,90,2.0,8.0,21,0.00,,,0.00,,2013-03-29 20:22:00,
2013-03-29 15:32:00,73.0,31.0,30.04,East,90,2.0,8.0,21,0.00,,,0.00,,2013-03-29 20:32:00,
2013-03-29 15:42:00,73.0,31.0,30.04,East,90,2.0,8.0,21,0.00,,,0.00,,2013-03-29 20:42:00,
2013-03-29 15:52:00,73.0,31.0,30.04,East,90,2.0,8.0,21,0.00,,,0.00,,2013-03-29 20:52:00,
2013-03-29 16:22:00,76.0,29.0,30.02,SW,229,0.0,8.0,18,0.00,,,0.00,,2013-03-29 21:22:00,
2013-03-29 16:33:00,76.0,29.0,30.02,SW,229,0.0,8.0,18,0.00,,,0.00,,2013-03-29 21:33:00,
2013-03-29 16:43:00,76.0,29.0,30.02,SW,229,0.0,8.0,18,0.00,,,0.00,,2013-03-29 21:43:00,
2013-03-29 16:53:00,79.0,30.0,29.99,ESE,109,0.0,5.0,17,0.00,,,0.00,,2013-03-29 21:53:00,
2013-03-29 17:00:00,81.0,32.0,29.98,South,176,1.0,8.0,17,0.00,,,0.00,,2013-03-29 22:00:00,
2013-03-29 17:03:00,79.0,30.0,29.99,ESE,109,0.0,5.0,17,0.00,,,0.00,,2013-03-29 22:03:00,
2013-03-29 17:12:00,79.0,30.0,29.99,ESE,109,0.0,5.0,17,0.00,,,0.00,,2013-03-29 22:12:00,
2013-03-29 17:22:00,81.0,32.0,29.98,South,176,1.0,8.0,17,0.00,,,0.00,,2013-03-29 22:22:00,
2013-03-29 17:33:00,81.0,32.0,29.98,South,176,1.0,8.0,17,0.00,,,0.00,,2013-03-29 22:33:00,
2013-03-29 17:43:00,81.0,32.0,29.98,South,176,1.0,8.0,17,0.00,,,0.00,,2013-03-29 22:43:00,
2013-03-29 17:53:00,81.0,32.0,29.98,South,176,1.0,8.0,17,0.00,,,0.00,,2013-03-29 22:53:00,
2013-03-29 18:22:00,79.0,29.0,29.98,North,360,0.0,2.0,16,0.00,,,0.00,,2013-03-29 23:22:00,
2013-03-29 18:32:00,79.0,29.0,29.98,North,360,0.0,2.0,16,0.00,,,0.00,,2013-03-29 23:32:00,
2013-03-29 18:42:00,79.0,29.0,29.98,North,360,0.0,2.0,16,0.00,,,0.00,,2013-03-29 23:42:00,
2013-03-29 18:52:00,79.0,29.0,29.98,SW,223,3.0,11.0,16,0.00,,,0.00,,2013-03-29 23:52:00,
2013-03-29 19:03:00,79.0,29.0,29.98,SW,223,3.0,11.0,16,0.00,,,0.00,,2013-03-30 00:03:00,
2013-03-29 19:12:00,79.0,29.0,29.98,SW,223,3.0,11.0,16,0.00,,,0.00,,2013-03-30 00:12:00,
2013-03-29 19:22:00,78.0,30.0,29.98,WSW,257,0.0,5.0,17,0.00,,,0.00,,2013-03-30 00:22:00,
2013-03-29 19:30:00,76.0,25.0,29.99,SW,230,2.0,6.0,15,0.00,,,0.00,,2013-03-30 00:30:00,
2013-03-29 19:32:00,78.0,30.0,29.98,WSW,257,0.0,5.0,17,0.00,,,0.00,,2013-03-30 00:32:00,
2013-03-29 19:43:00,78.0,30.0,29.98,WSW,257,0.0,5.0,17,0.00,,,0.00,,2013-03-30 00:43:00,
2013-03-29 19:53:00,76.0,25.0,29.99,SW,230,2.0,6.0,15,0.00,,,0.00,,2013-03-30 00:53:00,
2013-03-29 20:02:00,76.0,25.0,29.99,SW,230,2.0,6.0,15,0.00,,,0.00,,2013-03-30 01:02:00,
2013-03-29 20:12:00,76.0,25.0,29.99,SW,230,2.0,6.0,15,0.00,,,0.00,,2013-03-30 01:12:00,
2013-03-29 20:22:00,76.0,25.0,29.99,SW,230,2.0,6.0,15,0.00,,,0.00,,2013-03-30 01:22:00,
2013-03-29 21:22:00,68.0,45.0,30.01,ESE,104,0.0,0.0,44,0.00,,,0.00,,2013-03-30 02:22:00,
2013-03-29 21:33:00,68.0,45.0,30.01,ESE,104,0.0,0.0,44,0.00,,,0.00,,2013-03-30 02:33:00,
2013-03-29 21:43:00,68.0,45.0,30.01,ESE,104,0.0,0.0,44,0.00,,,0.00,,2013-03-30 02:43:00,
2013-03-29 21:53:00,66.0,46.0,30.02,East,96,0.0,0.0,48,0.00,,,0.00,,2013-03-30 02:53:00,
2013-03-29 22:02:00,66.0,46.0,30.02,East,96,0.0,0.0,48,0.00,,,0.00,,2013-03-30 03:02:00,
2013-03-29 22:12:00,64.0,45.0,30.01,East,97,0.0,0.0,51,0.00,,,0.00,,2013-03-30 03:12:00,
2013-03-29 22:22:00,64.0,45.0,30.01,East,97,0.0,0.0,51,0.00,,,0.00,,2013-03-30 03:22:00,
2013-03-29 22:33:00,64.0,45.0,30.01,East,97,0.0,0.0,51,0.00,,,0.00,,2013-03-30 03:33:00,
2013-03-29 22:43:00,64.0,45.0,30.01,East,97,0.0,0.0,51,0.00,,,0.00,,2013-03-30 03:43:00,
2013-03-29 22:53:00,62.0,44.0,30.04,East,97,0.0,0.0,52,0.00,,,0.00,,2013-03-30 03:53:00,
2013-03-29 23:02:00,62.0,44.0,30.04,East,97,0.0,0.0,52,0.00,,,0.00,,2013-03-30 04:02:00,
2013-03-29 23:12:00,62.0,44.0,30.04,East,97,0.0,0.0,52,0.00,,,0.00,,2013-03-30 04:12:00,
2013-03-29 23:23:00,61.0,45.0,30.05,East,97,0.0,0.0,55,0.00,,,0.00,,2013-03-30 04:23:00,
2013-03-29 23:32:00,61.0,45.0,30.05,East,97,0.0,0.0,55,0.00,,,0.00,,2013-03-30 04:32:00,
2013-03-29 23:43:00,61.0,45.0,30.05,East,97,0.0,0.0,55,0.00,,,0.00,,2013-03-30 04:43:00,
2013-03-29 23:53:00,59.0,44.0,30.06,East,97,0.0,0.0,58,0.00,,,0.00,,2013-03-30 04:53:00,